Time;durP1;ratioP1;P1;durP2;ratioP2;P2;SDS_P1;SDS_P2;PMS_P1;PMS_P2;Temp;Humidity;BMP_temperature;BMP_pressure;BME280_temperature;BME280_humidity;BME280_pressure;Samples;Min_cycle;Max_cycle;Signal;HPM_P1;HPM_P2
2023/02/07 00:01:17;;;;;;;;;;;0.30;99.90;;;;;;5082654;28;20039;-72
2023/02/07 00:03:44;;;;;;;;;;;0.30;99.90;;;;;;5082868;28;20019;-73
2023/02/07 00:06:12;;;;;;;;;;;0.30;99.90;;;;;;5083663;28;20015;-71
2023/02/07 00:08:39;;;;;;;;;;;0.40;99.90;;;;;;5082738;28;20023;-72
2023/02/07 00:11:06;;;;;;;;;;;0.50;99.90;;;;;;5082243;28;19928;-72
2023/02/07 00:13:35;;;;;;;;;;;0.50;99.90;;;;;;5083044;28;19935;-72
2023/02/07 00:16:01;;;;;;;;;;;0.40;99.90;;;;;;5084046;28;19932;-72
2023/02/07 00:18:28;;;;;;;;;;;0.50;99.90;;;;;;5081688;28;20023;-71
2023/02/07 00:20:59;;;;;;;;;;;0.40;99.90;;;;;;5086284;28;19932;-72
2023/02/07 00:23:25;;;;;;;;;;;0.40;99.90;;;;;;5084149;28;19931;-71
2023/02/07 00:25:52;;;;;;;;;;;0.20;99.90;;;;;;5082118;28;19932;-72
2023/02/07 00:28:19;;;;;;;;;;;0.10;99.90;;;;;;5083246;28;20038;-72
2023/02/07 00:30:47;;;;;;;;;;;0.00;99.90;;;;;;5086271;28;19928;-72
2023/02/07 00:33:14;;;;;;;;;;;0.00;99.90;;;;;;5082248;28;19931;-71
2023/02/07 00:35:41;;;;;;;;;;;0.00;99.90;;;;;;5085383;28;19923;-72
2023/02/07 00:38:07;;;;;;;;;;;0.00;99.90;;;;;;5083610;28;20486;-71
2023/02/07 00:40:34;;;;;;;;;;;0.00;99.90;;;;;;5083912;28;19934;-72
2023/02/07 00:43:01;;;;;;;;;;;0.00;99.90;;;;;;5083471;28;19930;-72
2023/02/07 00:45:27;;;;;;;;;;;0.10;99.90;;;;;;5083111;28;19947;-71
2023/02/07 00:47:55;;;;;;;;;;;0.20;99.90;;;;;;5082622;28;20275;-71
2023/02/07 00:50:22;;;;;;;;;;;0.50;99.90;;;;;;5082477;28;20026;-72
2023/02/07 00:52:49;;;;;;;;;;;0.80;99.90;;;;;;5081997;28;20002;-71
2023/02/07 00:55:16;;;;;;;;;;;0.70;99.90;;;;;;5083588;28;19969;-72
2023/02/07 00:57:43;;;;;;;;;;;0.70;99.90;;;;;;5081712;28;19924;-71
2023/02/07 01:00:10;;;;;;;;;;;0.90;99.90;;;;;;5084408;28;19924;-71
2023/02/07 01:02:37;;;;;;;;;;;1.10;99.90;;;;;;5082027;28;19942;-71
2023/02/07 01:05:06;;;;;;;;;;;1.20;99.90;;;;;;5084679;28;20066;-72
2023/02/07 01:07:33;;;;;;;;;;;1.30;99.90;;;;;;5084456;28;19924;-72
2023/02/07 01:09:59;;;;;;;;;;;1.50;99.90;;;;;;5083732;28;19931;-72
2023/02/07 01:12:26;;;;;;;;;;;1.50;99.90;;;;;;5082837;28;20015;-73
2023/02/07 01:14:53;;;;;;;;;;;1.50;99.90;;;;;;5083537;28;19988;-72
2023/02/07 01:17:19;;;;;;;;;;;1.50;99.90;;;;;;5082368;28;20039;-72
2023/02/07 01:19:46;;;;;;;;;;;1.50;99.90;;;;;;5080259;28;19981;-72
2023/02/07 01:22:14;;;;;;;;;;;1.60;99.90;;;;;;5081472;28;20011;-72
2023/02/07 01:24:41;;;;;;;;;;;1.50;99.90;;;;;;5084554;28;19971;-71
2023/02/07 01:27:07;;;;;;;;;;;1.50;99.90;;;;;;5080213;28;20024;-71
2023/02/07 01:29:34;;;;;;;;;;;1.50;99.90;;;;;;5083105;28;19931;-70
2023/02/07 01:32:00;;;;;;;;;;;1.50;99.90;;;;;;5081330;28;20011;-71
2023/02/07 01:34:27;;;;;;;;;;;1.40;99.90;;;;;;5083790;28;19924;-71
2023/02/07 01:36:54;;;;;;;;;;;1.10;99.90;;;;;;5080838;28;19924;-70
2023/02/07 01:39:22;;;;;;;;;;;1.10;99.90;;;;;;5082539;28;19931;-71
2023/02/07 01:41:48;;;;;;;;;;;1.30;99.90;;;;;;5083665;28;19971;-71
2023/02/07 01:44:34;;;;;;;;;;;1.30;99.90;;;;;;5081856;28;20613;-72
2023/02/07 01:47:00;;;;;;;;;;;1.30;99.90;;;;;;5081434;28;20657;-71
2023/02/07 01:49:29;;;;;;;;;;;1.30;99.90;;;;;;5082869;28;19967;-71
2023/02/07 01:51:59;;;;;;;;;;;1.20;99.90;;;;;;5082060;28;20474;-72
2023/02/07 01:54:30;;;;;;;;;;;1.00;99.90;;;;;;5082094;28;20349;-72
2023/02/07 01:56:58;;;;;;;;;;;1.00;99.90;;;;;;5081287;28;20299;-72
2023/02/07 01:59:25;;;;;;;;;;;1.10;99.90;;;;;;5083441;28;20000;-71
2023/02/07 02:01:52;;;;;;;;;;;1.10;99.90;;;;;;5082163;28;20026;-71
2023/02/07 02:04:19;;;;;;;;;;;1.10;99.90;;;;;;5079387;28;20044;-71
2023/02/07 02:06:46;;;;;;;;;;;1.10;99.90;;;;;;5081180;28;19990;-70
2023/02/07 02:09:13;;;;;;;;;;;1.00;99.90;;;;;;5082626;28;20395;-72
2023/02/07 02:12:04;;;;;;;;;;;1.00;99.90;;;;;;5083859;28;20392;-72
2023/02/07 02:14:45;;;;;;;;;;;1.00;99.90;;;;;;5061606;28;19969;-72
2023/02/07 02:17:15;;;;;;;;;;;1.00;99.90;;;;;;5079478;28;22312;-72
2023/02/07 02:20:09;;;;;;;;;;;1.00;99.90;;;;;;5080107;28;20009;-72
2023/02/07 02:22:44;;;;;;;;;;;0.90;99.90;;;;;;5034656;28;20035;-72
2023/02/07 02:25:26;;;;;;;;;;;0.90;99.90;;;;;;5083290;28;20023;-72
2023/02/07 02:28:04;;;;;;;;;;;0.90;99.90;;;;;;5081076;28;20014;-72
2023/02/07 02:30:43;;;;;;;;;;;0.80;99.90;;;;;;5081402;28;19932;-72
2023/02/07 02:33:32;;;;;;;;;;;0.70;99.90;;;;;;5078346;28;20410;-72
2023/02/07 02:36:03;;;;;;;;;;;0.60;99.90;;;;;;5081405;28;19972;-72
2023/02/07 02:38:33;;;;;;;;;;;0.60;99.90;;;;;;5082607;28;19963;-72
2023/02/07 02:41:02;;;;;;;;;;;0.70;99.90;;;;;;5082417;28;20460;-72
2023/02/07 02:43:34;;;;;;;;;;;0.80;99.90;;;;;;5080110;28;20402;-72
2023/02/07 02:46:03;;;;;;;;;;;0.80;99.90;;;;;;5081016;28;20046;-71
2023/02/07 02:48:32;;;;;;;;;;;0.80;99.90;;;;;;5077964;28;19959;-71
2023/02/07 02:50:59;;;;;;;;;;;0.80;99.90;;;;;;5081845;28;19930;-71
2023/02/07 02:53:26;;;;;;;;;;;0.80;99.90;;;;;;5077418;28;20005;-71
2023/02/07 02:56:03;;;;;;;;;;;0.80;99.90;;;;;;5081839;28;19924;-71
2023/02/07 02:58:37;;;;;;;;;;;0.80;99.90;;;;;;5080974;28;19938;-72
2023/02/07 03:01:11;;;;;;;;;;;0.80;99.90;;;;;;5080522;28;19924;-71
2023/02/07 03:03:46;;;;;;;;;;;0.80;99.90;;;;;;5077619;28;19928;-71
2023/02/07 03:06:17;;;;;;;;;;;0.90;99.90;;;;;;5077698;28;19924;-70
2023/02/07 03:08:45;;;;;;;;;;;0.80;99.90;;;;;;5079755;28;19924;-70
2023/02/07 03:11:13;;;;;;;;;;;0.70;99.90;;;;;;5082159;28;19930;-70
2023/02/07 03:13:47;;;;;;;;;;;0.60;99.90;;;;;;5079594;28;19931;-71
2023/02/07 03:16:15;;;;;;;;;;;0.80;99.90;;;;;;5083661;28;19931;-72
2023/02/07 03:18:46;;;;;;;;;;;0.70;99.90;;;;;;5083439;28;20364;-71
2023/02/07 03:21:17;;;;;;;;;;;0.80;99.90;;;;;;5085697;28;20355;-71
2023/02/07 03:23:44;;;;;;;;;;;0.80;99.90;;;;;;5084651;28;20006;-70
2023/02/07 03:26:11;;;;;;;;;;;0.80;99.90;;;;;;5081071;28;20022;-71
2023/02/07 03:28:39;;;;;;;;;;;0.70;99.90;;;;;;5085558;28;19974;-71
2023/02/07 03:31:06;;;;;;;;;;;0.70;99.90;;;;;;5084835;28;20085;-72
2023/02/07 03:33:33;;;;;;;;;;;0.70;99.90;;;;;;5083670;28;20024;-71
2023/02/07 03:36:07;;;;;;;;;;;0.60;99.90;;;;;;5088592;28;20055;-71
2023/02/07 03:38:34;;;;;;;;;;;0.60;99.90;;;;;;5085515;28;19932;-72
2023/02/07 03:41:04;;;;;;;;;;;0.60;99.90;;;;;;5086925;28;20450;-72
2023/02/07 03:43:33;;;;;;;;;;;0.40;99.90;;;;;;5081015;28;19924;-71
2023/02/07 03:46:00;;;;;;;;;;;0.40;99.90;;;;;;5082606;28;20382;-72
2023/02/07 03:48:26;;;;;;;;;;;0.40;99.90;;;;;;5083050;28;20301;-71
2023/02/07 03:50:53;;;;;;;;;;;0.40;99.90;;;;;;5084845;28;20360;-72
2023/02/07 03:53:21;;;;;;;;;;;0.30;99.90;;;;;;5085553;28;19930;-72
2023/02/07 03:55:48;;;;;;;;;;;0.40;99.90;;;;;;5084444;28;20086;-71
2023/02/07 03:58:15;;;;;;;;;;;0.40;99.90;;;;;;5086407;28;21924;-72
2023/02/07 04:00:41;;;;;;;;;;;0.40;99.90;;;;;;5085410;28;20022;-71
2023/02/07 04:03:08;;;;;;;;;;;0.40;99.90;;;;;;5080884;28;19974;-71
2023/02/07 04:05:35;;;;;;;;;;;0.30;99.90;;;;;;5087035;28;19938;-70
2023/02/07 04:08:01;;;;;;;;;;;0.20;99.90;;;;;;5082302;28;19990;-70
2023/02/07 04:10:29;;;;;;;;;;;0.20;99.90;;;;;;5086106;28;20440;-70
2023/02/07 04:12:56;;;;;;;;;;;0.20;99.90;;;;;;5081709;28;19942;-70
2023/02/07 04:15:23;;;;;;;;;;;0.20;99.90;;;;;;5084567;28;20050;-70
2023/02/07 04:17:49;;;;;;;;;;;0.30;99.90;;;;;;5082177;28;19931;-70
2023/02/07 04:20:16;;;;;;;;;;;0.20;99.90;;;;;;5083979;28;20008;-70
2023/02/07 04:22:43;;;;;;;;;;;0.10;99.90;;;;;;5082195;28;20302;-70
2023/02/07 04:25:10;;;;;;;;;;;0.10;99.90;;;;;;5083952;28;19978;-71
2023/02/07 04:27:38;;;;;;;;;;;0.10;99.90;;;;;;5079227;28;19960;-70
2023/02/07 04:30:05;;;;;;;;;;;0.10;99.90;;;;;;5084317;28;19969;-69
2023/02/07 04:32:31;;;;;;;;;;;0.00;99.90;;;;;;5084136;28;19959;-70
2023/02/07 04:34:58;;;;;;;;;;;0.00;99.90;;;;;;5080075;28;19924;-70
2023/02/07 04:37:25;;;;;;;;;;;-0.10;99.90;;;;;;5084331;28;20770;-70
2023/02/07 04:39:51;;;;;;;;;;;-0.20;99.90;;;;;;5083001;28;19931;-70
2023/02/07 04:42:18;;;;;;;;;;;-0.30;99.90;;;;;;5084359;28;20360;-70
2023/02/07 04:44:46;;;;;;;;;;;-0.30;99.90;;;;;;5080736;28;20011;-71
2023/02/07 04:47:13;;;;;;;;;;;-0.30;99.90;;;;;;5082182;28;19928;-69
2023/02/07 04:49:39;;;;;;;;;;;-0.50;99.90;;;;;;5083897;28;19932;-71
2023/02/07 04:52:06;;;;;;;;;;;-0.50;99.90;;;;;;5082496;28;19942;-70
2023/02/07 04:54:33;;;;;;;;;;;-0.50;99.90;;;;;;5082340;28;20720;-71
2023/02/07 04:56:59;;;;;;;;;;;-0.50;99.90;;;;;;5083092;28;20009;-71
2023/02/07 04:59:26;;;;;;;;;;;-0.60;99.90;;;;;;5083613;28;19932;-71
2023/02/07 05:01:54;;;;;;;;;;;-0.70;99.90;;;;;;5080931;28;19967;-71
2023/02/07 05:04:21;;;;;;;;;;;-0.80;99.90;;;;;;5082878;28;19935;-71
2023/02/07 05:06:47;;;;;;;;;;;-0.90;99.90;;;;;;5082132;28;20014;-73
2023/02/07 05:09:14;;;;;;;;;;;-0.90;99.90;;;;;;5082296;28;19934;-71
2023/02/07 05:11:41;;;;;;;;;;;-0.90;99.90;;;;;;5083698;28;19952;-71
2023/02/07 05:14:07;;;;;;;;;;;-1.00;99.90;;;;;;5080542;28;20015;-71
2023/02/07 05:16:34;;;;;;;;;;;-1.00;99.90;;;;;;5083150;28;19930;-72
2023/02/07 05:19:02;;;;;;;;;;;-1.10;99.90;;;;;;5081243;28;20007;-71
2023/02/07 05:21:29;;;;;;;;;;;-1.10;99.90;;;;;;5082255;28;19924;-71
2023/02/07 05:23:55;;;;;;;;;;;-1.20;99.90;;;;;;5081675;28;19946;-72
2023/02/07 05:26:22;;;;;;;;;;;-1.20;99.90;;;;;;5082235;28;19955;-72
2023/02/07 05:28:49;;;;;;;;;;;-1.30;99.90;;;;;;5083956;28;20019;-71
2023/02/07 05:31:15;;;;;;;;;;;-1.30;99.90;;;;;;5081852;28;20003;-71
2023/02/07 05:33:41;;;;;;;;;;;-1.20;99.90;;;;;;5078007;28;19924;-72
2023/02/07 05:36:10;;;;;;;;;;;-1.30;99.90;;;;;;5082668;28;20015;-72
2023/02/07 05:38:36;;;;;;;;;;;-1.30;99.90;;;;;;5081629;28;20022;-71
2023/02/07 05:41:03;;;;;;;;;;;-1.30;99.90;;;;;;5082351;28;20027;-71
2023/02/07 05:43:30;;;;;;;;;;;-1.30;99.90;;;;;;5082571;28;19932;-71
2023/02/07 05:45:56;;;;;;;;;;;-1.20;99.90;;;;;;5081089;28;20464;-71
2023/02/07 05:48:23;;;;;;;;;;;-1.10;99.90;;;;;;5078726;28;20026;-71
2023/02/07 05:50:50;;;;;;;;;;;-1.10;99.90;;;;;;5078745;28;19931;-71
2023/02/07 05:53:18;;;;;;;;;;;-1.00;99.90;;;;;;5079589;28;20019;-71
2023/02/07 05:55:44;;;;;;;;;;;-0.90;99.90;;;;;;5080792;28;19993;-72
2023/02/07 05:58:11;;;;;;;;;;;-0.80;99.90;;;;;;5079300;28;20473;-71
2023/02/07 06:00:38;;;;;;;;;;;-0.60;99.90;;;;;;5082201;28;20007;-71
2023/02/07 06:03:05;;;;;;;;;;;-0.60;99.90;;;;;;5077439;28;20314;-70
2023/02/07 06:05:32;;;;;;;;;;;-0.50;99.90;;;;;;5083731;28;19947;-70
2023/02/07 06:07:59;;;;;;;;;;;-0.50;99.90;;;;;;5081592;28;19925;-71
2023/02/07 06:10:27;;;;;;;;;;;-0.50;99.90;;;;;;5084778;28;20019;-70
2023/02/07 06:12:54;;;;;;;;;;;-0.40;99.90;;;;;;5083258;28;20446;-70
2023/02/07 06:15:20;;;;;;;;;;;-0.40;99.90;;;;;;5084443;28;20025;-71
2023/02/07 06:17:50;;;;;;;;;;;-0.30;99.90;;;;;;5080064;28;20024;-71
2023/02/07 06:20:17;;;;;;;;;;;-0.40;99.90;;;;;;5083983;28;20041;-71
2023/02/07 06:22:43;;;;;;;;;;;-0.50;99.90;;;;;;5088335;28;19931;-72
2023/02/07 06:25:10;;;;;;;;;;;-0.40;99.90;;;;;;5079908;28;19936;-71
2023/02/07 06:27:39;;;;;;;;;;;-0.30;99.90;;;;;;5073986;28;19925;-72
2023/02/07 06:30:06;;;;;;;;;;;-0.30;99.90;;;;;;5084512;28;20369;-72
2023/02/07 06:32:33;;;;;;;;;;;-0.40;99.90;;;;;;5088603;28;19924;-71
2023/02/07 06:35:00;;;;;;;;;;;-0.40;99.90;;;;;;5080036;28;20649;-71
2023/02/07 06:37:27;;;;;;;;;;;-0.30;99.90;;;;;;5091081;28;20026;-73
2023/02/07 06:39:54;;;;;;;;;;;-0.40;99.90;;;;;;5087096;28;20268;-72
2023/02/07 06:42:21;;;;;;;;;;;-0.40;99.90;;;;;;5090246;28;19970;-70
2023/02/07 06:44:49;;;;;;;;;;;-0.40;99.90;;;;;;5076218;22;20371;-72
2023/02/07 06:47:18;;;;;;;;;;;-0.40;99.90;;;;;;5037569;28;19932;-72
2023/02/07 06:49:45;;;;;;;;;;;-0.40;99.90;;;;;;5046057;28;20336;-71
2023/02/07 06:52:11;;;;;;;;;;;-0.40;99.90;;;;;;5045941;28;19968;-70
2023/02/07 06:54:38;;;;;;;;;;;-0.40;99.90;;;;;;5048703;28;19973;-71
2023/02/07 06:57:05;;;;;;;;;;;-0.50;99.90;;;;;;5045438;28;19929;-71
2023/02/07 06:59:32;;;;;;;;;;;-0.70;99.90;;;;;;5044425;28;19936;-69
2023/02/07 07:02:00;;;;;;;;;;;-0.80;99.90;;;;;;5043990;28;19971;-72
2023/02/07 07:04:27;;;;;;;;;;;-0.90;99.90;;;;;;5048061;28;19971;-71
2023/02/07 07:06:53;;;;;;;;;;;-1.00;99.90;;;;;;5047968;28;20089;-70
2023/02/07 07:09:20;;;;;;;;;;;-1.10;99.90;;;;;;5042111;28;19983;-70
2023/02/07 07:11:47;;;;;;;;;;;-1.00;99.90;;;;;;5045800;28;20019;-73
2023/02/07 07:14:13;;;;;;;;;;;-1.00;99.90;;;;;;5041197;28;20237;-72
2023/02/07 07:16:40;;;;;;;;;;;-0.90;99.90;;;;;;5035003;28;19947;-72
2023/02/07 07:19:08;;;;;;;;;;;-1.00;99.90;;;;;;5044857;28;20269;-71
2023/02/07 07:21:35;;;;;;;;;;;-1.20;99.90;;;;;;5044843;28;19967;-71
2023/02/07 07:24:02;;;;;;;;;;;-1.20;99.90;;;;;;5041704;28;20446;-69
2023/02/07 07:26:28;;;;;;;;;;;-1.30;99.90;;;;;;5043042;28;19925;-70
2023/02/07 07:28:58;;;;;;;;;;;-1.20;99.90;;;;;;5047573;28;20003;-72
2023/02/07 07:31:26;;;;;;;;;;;-1.00;99.90;;;;;;5043520;28;19925;-72
2023/02/07 07:33:53;;;;;;;;;;;-1.10;99.90;;;;;;5047066;28;20103;-71
2023/02/07 07:36:21;;;;;;;;;;;-1.30;99.90;;;;;;5048893;28;20016;-71
2023/02/07 07:38:48;;;;;;;;;;;-1.30;99.90;;;;;;5049161;28;20016;-71
2023/02/07 07:41:14;;;;;;;;;;;-1.30;99.90;;;;;;5042645;28;20268;-71
2023/02/07 07:43:41;;;;;;;;;;;-1.20;99.90;;;;;;5049273;28;19932;-72
2023/02/07 07:46:08;;;;;;;;;;;-1.10;99.90;;;;;;5040829;28;19931;-72
2023/02/07 07:48:34;;;;;;;;;;;-0.90;99.90;;;;;;5043568;28;19933;-72
2023/02/07 07:51:01;;;;;;;;;;;-0.90;99.90;;;;;;5047426;28;20039;-73
2023/02/07 07:53:29;;;;;;;;;;;-0.80;99.90;;;;;;5041875;28;19931;-73
2023/02/07 07:55:57;;;;;;;;;;;-0.80;99.90;;;;;;5043591;28;20063;-72
2023/02/07 07:58:24;;;;;;;;;;;-1.10;99.90;;;;;;5038577;28;19956;-72
2023/02/07 08:00:51;;;;;;;;;;;-1.10;99.90;;;;;;5043621;28;19960;-71
2023/02/07 08:03:18;;;;;;;;;;;-1.10;99.90;;;;;;5044118;28;20007;-70
2023/02/07 08:05:46;;;;;;;;;;;-1.20;99.90;;;;;;5044674;28;19933;-71
2023/02/07 08:08:12;;;;;;;;;;;-1.20;99.90;;;;;;5041565;28;19979;-70
2023/02/07 08:10:41;;;;;;;;;;;-1.20;99.90;;;;;;5049777;28;20447;-70
2023/02/07 08:13:07;;;;;;;;;;;-1.20;99.90;;;;;;5051734;28;20012;-72
2023/02/07 08:15:34;;;;;;;;;;;-1.20;99.90;;;;;;5043537;28;20016;-72
2023/02/07 08:18:01;;;;;;;;;;;-1.20;99.90;;;;;;5050201;28;20012;-71
2023/02/07 08:20:27;;;;;;;;;;;-1.00;99.90;;;;;;5044493;28;20011;-71
2023/02/07 08:22:56;;;;;;;;;;;-0.80;99.90;;;;;;5042796;28;20003;-70
2023/02/07 08:25:23;;;;;;;;;;;-0.80;99.90;;;;;;5043247;28;19952;-70
2023/02/07 08:27:51;;;;;;;;;;;-0.90;99.90;;;;;;5045002;28;20410;-71
2023/02/07 08:30:18;;;;;;;;;;;-1.00;99.90;;;;;;5039952;28;20019;-71
2023/02/07 08:32:44;;;;;;;;;;;-0.80;99.90;;;;;;5045948;28;19932;-71
2023/02/07 08:35:11;;;;;;;;;;;-0.60;99.90;;;;;;5044214;28;20016;-71
2023/02/07 08:37:38;;;;;;;;;;;-0.70;99.90;;;;;;5032376;28;19929;-71
2023/02/07 08:40:05;;;;;;;;;;;-0.80;99.90;;;;;;5037637;28;19932;-72
2023/02/07 08:42:32;;;;;;;;;;;-1.00;99.90;;;;;;5041384;28;19931;-71
2023/02/07 08:45:00;;;;;;;;;;;-1.20;99.90;;;;;;5044507;28;20011;-71
2023/02/07 08:47:26;;;;;;;;;;;-1.30;99.90;;;;;;5041709;28;20384;-71
2023/02/07 08:49:53;;;;;;;;;;;-1.40;99.90;;;;;;5040154;28;20015;-71
2023/02/07 08:52:20;;;;;;;;;;;-1.40;99.90;;;;;;5042204;28;20011;-71
2023/02/07 08:54:47;;;;;;;;;;;-1.20;99.90;;;;;;5039379;28;20406;-71
2023/02/07 08:57:13;;;;;;;;;;;-1.10;99.90;;;;;;5038060;28;19933;-71
2023/02/07 08:59:40;;;;;;;;;;;-1.10;99.90;;;;;;5039626;28;20446;-73
2023/02/07 09:02:10;;;;;;;;;;;-1.20;99.90;;;;;;5036473;28;19955;-72
2023/02/07 09:04:37;;;;;;;;;;;-1.20;99.90;;;;;;5044320;28;20334;-72
2023/02/07 09:07:03;;;;;;;;;;;-1.20;99.90;;;;;;5037283;28;19968;-70
2023/02/07 09:09:32;;;;;;;;;;;-1.20;99.90;;;;;;5031793;28;20057;-70
2023/02/07 09:11:59;;;;;;;;;;;-1.10;99.90;;;;;;5040884;28;19972;-71
2023/02/07 09:14:25;;;;;;;;;;;-1.00;99.90;;;;;;5043436;28;20023;-71
2023/02/07 09:16:52;;;;;;;;;;;-0.90;99.90;;;;;;5034764;28;19939;-72
2023/02/07 09:19:20;;;;;;;;;;;-1.00;99.90;;;;;;5039536;28;19932;-72
2023/02/07 09:21:47;;;;;;;;;;;-0.90;99.90;;;;;;5039729;28;20411;-71
2023/02/07 09:24:14;;;;;;;;;;;-0.70;99.90;;;;;;5040984;28;19929;-75
2023/02/07 09:26:41;;;;;;;;;;;-0.40;99.90;;;;;;5043643;28;19932;-71
2023/02/07 09:29:10;;;;;;;;;;;-0.30;99.90;;;;;;5040056;28;19968;-71
2023/02/07 09:31:36;;;;;;;;;;;-0.50;99.90;;;;;;5043496;28;19928;-72
2023/02/07 09:34:04;;;;;;;;;;;-0.10;99.90;;;;;;5035002;28;20019;-72
2023/02/07 09:36:32;;;;;;;;;;;0.10;99.90;;;;;;5041450;28;20607;-72
2023/02/07 09:38:59;;;;;;;;;;;0.20;99.90;;;;;;5033904;28;19932;-73
2023/02/07 09:41:30;;;;;;;;;;;0.30;99.90;;;;;;5041943;28;19925;-75
2023/02/07 09:44:02;;;;;;;;;;;0.10;99.90;;;;;;5039946;28;20013;-69
2023/02/07 09:46:30;;;;;;;;;;;-0.40;99.90;;;;;;5035680;28;20047;-72
2023/02/07 09:49:03;;;;;;;;;;;-0.40;99.90;;;;;;5039949;28;19924;-73
2023/02/07 09:51:30;;;;;;;;;;;-0.50;99.90;;;;;;5042190;28;20025;-73
2023/02/07 09:54:00;;;;;;;;;;;-0.20;99.90;;;;;;5038646;28;20354;-73
2023/02/07 09:56:29;;;;;;;;;;;0.20;99.90;;;;;;5047756;28;19925;-73
2023/02/07 09:58:59;;;;;;;;;;;0.20;99.90;;;;;;5038704;28;19925;-74
2023/02/07 10:01:29;;;;;;;;;;;0.50;99.90;;;;;;5041822;28;20553;-74
2023/02/07 10:04:02;;;;;;;;;;;0.30;99.90;;;;;;5047297;22;19994;-73
2023/02/07 10:06:29;;;;;;;;;;;0.30;99.90;;;;;;5046549;28;20031;-73
2023/02/07 10:08:58;;;;;;;;;;;0.20;99.90;;;;;;5048732;28;19986;-70
2023/02/07 10:11:33;;;;;;;;;;;0.70;99.90;;;;;;5052836;28;19935;-71
2023/02/07 10:14:07;;;;;;;;;;;1.00;99.90;;;;;;5039024;28;19933;-73
2023/02/07 10:16:46;;;;;;;;;;;0.70;99.90;;;;;;5041559;28;19933;-73
2023/02/07 10:19:18;;;;;;;;;;;0.30;99.90;;;;;;5045466;28;19937;-72
2023/02/07 10:21:49;;;;;;;;;;;0.40;99.90;;;;;;5043867;28;19966;-73
2023/02/07 10:24:24;;;;;;;;;;;0.90;99.90;;;;;;5041377;28;20446;-71
2023/02/07 10:26:54;;;;;;;;;;;1.50;99.90;;;;;;5044644;28;20311;-71
2023/02/07 10:29:41;;;;;;;;;;;1.70;99.90;;;;;;5046488;28;19971;-71
2023/02/07 10:32:12;;;;;;;;;;;1.70;99.90;;;;;;5037985;28;19929;-72
2023/02/07 10:34:40;;;;;;;;;;;1.80;99.90;;;;;;5043439;28;19964;-72
2023/02/07 10:37:14;;;;;;;;;;;1.80;99.90;;;;;;5042067;28;19943;-72
2023/02/07 10:39:44;;;;;;;;;;;1.70;99.90;;;;;;5035758;28;20311;-70
2023/02/07 10:42:14;;;;;;;;;;;1.80;99.90;;;;;;5050197;28;20354;-71
2023/02/07 10:44:44;;;;;;;;;;;1.80;99.90;;;;;;5040250;28;21108;-69
2023/02/07 10:47:14;;;;;;;;;;;1.90;99.90;;;;;;5047667;23;19932;-73
2023/02/07 10:49:41;;;;;;;;;;;1.90;99.90;;;;;;5029548;28;20057;-72
2023/02/07 10:52:14;;;;;;;;;;;1.90;99.90;;;;;;5027345;28;19933;-72
2023/02/07 10:54:49;;;;;;;;;;;1.90;99.90;;;;;;5028158;28;19971;-71
2023/02/07 10:57:19;;;;;;;;;;;1.80;99.90;;;;;;5025011;28;19925;-73
2023/02/07 10:59:46;;;;;;;;;;;2.00;99.90;;;;;;5029905;28;19995;-72
2023/02/07 11:02:31;;;;;;;;;;;2.10;99.90;;;;;;5023172;28;19998;-72
2023/02/07 11:04:58;;;;;;;;;;;2.10;99.90;;;;;;5037044;22;20012;-73
2023/02/07 11:07:25;;;;;;;;;;;1.80;99.90;;;;;;5043555;28;20055;-73
2023/02/07 11:10:09;;;;;;;;;;;1.80;99.90;;;;;;5047472;22;20039;-73
2023/02/07 11:12:50;;;;;;;;;;;2.00;99.90;;;;;;5041428;28;19933;-74
2023/02/07 11:15:18;;;;;;;;;;;2.30;99.90;;;;;;5042839;28;20295;-72
2023/02/07 11:17:48;;;;;;;;;;;2.20;99.90;;;;;;5060919;23;20456;-74
2023/02/07 11:20:19;;;;;;;;;;;2.20;99.90;;;;;;5061080;28;20406;-73
2023/02/07 11:22:46;;;;;;;;;;;2.40;99.90;;;;;;5059247;28;20044;-73
2023/02/07 11:25:13;;;;;;;;;;;2.30;99.90;;;;;;5061217;28;19924;-73
2023/02/07 11:27:41;;;;;;;;;;;2.30;99.90;;;;;;5066152;28;20261;-74
2023/02/07 11:30:14;;;;;;;;;;;2.40;99.90;;;;;;5063925;28;19925;-72
2023/02/07 11:32:42;;;;;;;;;;;2.60;99.90;;;;;;5069618;28;20015;-73
2023/02/07 11:35:09;;;;;;;;;;;2.70;99.90;;;;;;5062923;28;19933;-73
2023/02/07 11:37:36;;;;;;;;;;;2.80;99.90;;;;;;5065708;28;20021;-73
2023/02/07 11:40:20;;;;;;;;;;;2.80;99.90;;;;;;5062274;28;19924;-71
2023/02/07 11:42:49;;;;;;;;;;;2.90;99.90;;;;;;5063541;28;19933;-73
2023/02/07 11:45:17;;;;;;;;;;;3.00;99.90;;;;;;5068648;28;19970;-72
2023/02/07 11:47:47;;;;;;;;;;;2.80;99.90;;;;;;5068935;28;19931;-74
2023/02/07 11:50:18;;;;;;;;;;;3.00;99.90;;;;;;5063261;28;19960;-73
2023/02/07 11:52:49;;;;;;;;;;;3.40;99.90;;;;;;5075128;28;20054;-73
2023/02/07 11:55:21;;;;;;;;;;;3.10;99.90;;;;;;5073680;28;19941;-73
2023/02/07 11:57:50;;;;;;;;;;;3.10;99.90;;;;;;5072667;28;20431;-73
2023/02/07 12:00:21;;;;;;;;;;;3.30;99.90;;;;;;5066875;28;19932;-73
2023/02/07 12:02:50;;;;;;;;;;;3.50;99.90;;;;;;5064983;28;19986;-73
2023/02/07 12:05:19;;;;;;;;;;;3.60;99.90;;;;;;5069797;28;20426;-73
2023/02/07 12:07:47;;;;;;;;;;;3.70;99.90;;;;;;5060716;28;20043;-73
2023/02/07 12:10:16;;;;;;;;;;;3.70;99.90;;;;;;5062334;28;19925;-74
2023/02/07 12:12:44;;;;;;;;;;;3.80;99.90;;;;;;5060146;28;21223;-72
2023/02/07 12:15:15;;;;;;;;;;;3.90;99.90;;;;;;5066544;28;20015;-73
2023/02/07 12:17:47;;;;;;;;;;;3.90;99.90;;;;;;5063537;28;20300;-74
2023/02/07 12:20:20;;;;;;;;;;;3.90;99.90;;;;;;5062622;28;19968;-73
2023/02/07 12:22:50;;;;;;;;;;;4.10;99.90;;;;;;5059931;28;20299;-72
2023/02/07 12:25:19;;;;;;;;;;;4.20;99.90;;;;;;5064755;28;19933;-72
2023/02/07 12:27:48;;;;;;;;;;;4.20;99.90;;;;;;5062748;28;19935;-71
2023/02/07 12:30:18;;;;;;;;;;;4.10;99.90;;;;;;5061493;28;20393;-74
2023/02/07 12:32:49;;;;;;;;;;;4.30;99.90;;;;;;5058916;28;19925;-75
2023/02/07 12:35:20;;;;;;;;;;;4.30;99.90;;;;;;5072880;28;19970;-73
2023/02/07 12:37:50;;;;;;;;;;;4.30;99.90;;;;;;5063737;28;19978;-72
2023/02/07 12:40:21;;;;;;;;;;;4.40;99.90;;;;;;5069504;28;19930;-73
2023/02/07 12:42:52;;;;;;;;;;;4.40;99.90;;;;;;5070512;28;20548;-72
2023/02/07 12:45:26;;;;;;;;;;;4.60;99.90;;;;;;5058793;28;19947;-74
2023/02/07 12:47:57;;;;;;;;;;;4.50;99.90;;;;;;5069085;28;19929;-74
2023/02/07 12:50:30;;;;;;;;;;;4.70;99.90;;;;;;5065235;28;19933;-72
2023/02/07 12:53:06;;;;;;;;;;;4.50;99.90;;;;;;5065129;28;19986;-73
2023/02/07 12:55:38;;;;;;;;;;;4.50;99.90;;;;;;5067700;28;19929;-71
2023/02/07 12:58:15;;;;;;;;;;;4.60;99.90;;;;;;5068635;28;19960;-74
2023/02/07 13:00:50;;;;;;;;;;;4.90;99.90;;;;;;5079425;28;19932;-72
2023/02/07 13:03:21;;;;;;;;;;;4.90;99.90;;;;;;5062895;28;19936;-73
2023/02/07 13:05:54;;;;;;;;;;;4.80;99.90;;;;;;5066365;28;19956;-73
2023/02/07 13:08:26;;;;;;;;;;;4.90;99.90;;;;;;5078578;28;20368;-72
2023/02/07 13:10:56;;;;;;;;;;;5.00;99.90;;;;;;5072091;28;20001;-73
2023/02/07 13:13:26;;;;;;;;;;;5.00;99.90;;;;;;5073115;28;19985;-72
2023/02/07 13:15:58;;;;;;;;;;;5.00;99.90;;;;;;5061265;28;19929;-74
2023/02/07 13:18:28;;;;;;;;;;;5.10;99.90;;;;;;5063279;28;20354;-71
2023/02/07 13:21:00;;;;;;;;;;;5.20;99.90;;;;;;5072852;28;19939;-72
2023/02/07 13:23:30;;;;;;;;;;;5.20;99.90;;;;;;5064843;28;20409;-71
2023/02/07 13:26:00;;;;;;;;;;;5.10;99.90;;;;;;5065539;28;19928;-71
2023/02/07 13:28:36;;;;;;;;;;;5.00;99.90;;;;;;5068877;28;20397;-72
2023/02/07 13:31:05;;;;;;;;;;;5.00;99.90;;;;;;5068831;28;19930;-71
2023/02/07 13:33:34;;;;;;;;;;;5.20;99.90;;;;;;5068329;28;19964;-72
2023/02/07 13:36:05;;;;;;;;;;;5.20;99.90;;;;;;5072058;28;19925;-72
2023/02/07 13:38:38;;;;;;;;;;;5.20;99.90;;;;;;5067599;28;19924;-72
2023/02/07 13:41:08;;;;;;;;;;;5.30;99.90;;;;;;5072168;28;20367;-73
2023/02/07 13:43:39;;;;;;;;;;;5.20;99.90;;;;;;5065872;28;19932;-72
2023/02/07 13:46:12;;;;;;;;;;;5.20;99.90;;;;;;5067874;28;20023;-72
2023/02/07 13:48:42;;;;;;;;;;;5.20;99.90;;;;;;5061693;28;19971;-73
2023/02/07 13:51:13;;;;;;;;;;;5.30;99.90;;;;;;5061911;28;19928;-73
2023/02/07 13:53:44;;;;;;;;;;;5.30;99.90;;;;;;5068354;28;19947;-70
2023/02/07 13:59:37;;;;;;;;;;;5.30;99.90;;;;;;5061285;28;19928;-73
2023/02/07 14:01:50;;;;;;;;;;;5.40;99.90;;;;;;5058693;28;19943;-70
2023/02/07 14:04:18;;;;;;;;;;;5.50;99.90;;;;;;5065246;28;19932;-71
2023/02/07 14:06:55;;;;;;;;;;;5.50;99.90;;;;;;5061512;28;19931;-72
2023/02/07 14:09:23;;;;;;;;;;;5.50;99.90;;;;;;5064664;28;20026;-71
2023/02/07 14:11:56;;;;;;;;;;;5.60;99.90;;;;;;5067039;28;20015;-72
2023/02/07 14:14:24;;;;;;;;;;;5.50;99.70;;;;;;5065023;28;20356;-71
2023/02/07 14:16:53;;;;;;;;;;;5.40;99.90;;;;;;5068819;28;19929;-71
2023/02/07 14:19:38;;;;;;;;;;;5.40;99.90;;;;;;5067567;28;19924;-71
2023/02/07 14:22:15;;;;;;;;;;;5.40;99.90;;;;;;5065836;28;20019;-71
2023/02/07 14:24:48;;;;;;;;;;;5.40;99.20;;;;;;5067887;28;19924;-71
2023/02/07 14:27:36;;;;;;;;;;;5.40;99.40;;;;;;5066257;28;19924;-72
2023/02/07 14:30:30;;;;;;;;;;;5.40;99.20;;;;;;5068294;28;19925;-71
2023/02/07 14:33:14;;;;;;;;;;;5.30;98.90;;;;;;5068015;28;19924;-71
2023/02/07 14:35:59;;;;;;;;;;;5.30;99.90;;;;;;5063853;28;19933;-72
2023/02/07 14:38:30;;;;;;;;;;;5.30;99.80;;;;;;5064518;28;19924;-71
2023/02/07 14:41:02;;;;;;;;;;;5.20;98.70;;;;;;5053711;28;19925;-72